createdAt,value
2023-07-18T00:00:45.020Z,100.00
2023-07-18T00:03:13.885Z,100.00
2023-07-18T00:05:41.862Z,100.00
2023-07-18T00:08:10.180Z,100.00
2023-07-18T00:10:37.821Z,100.00
2023-07-18T00:13:06.397Z,100.00
2023-07-18T00:15:33.861Z,100.00
2023-07-18T00:18:03.273Z,100.00
2023-07-18T00:20:30.368Z,100.00
2023-07-18T00:22:57.421Z,100.00
2023-07-18T00:25:24.525Z,100.00
2023-07-18T00:27:52.318Z,100.00
2023-07-18T00:30:19.240Z,100.00
2023-07-18T00:32:46.726Z,100.00
2023-07-18T00:35:16.140Z,100.00
2023-07-18T00:37:44.279Z,100.00
2023-07-18T00:40:15.873Z,100.00
2023-07-18T00:42:51.453Z,100.00
2023-07-18T00:45:18.415Z,100.00
2023-07-18T00:47:48.533Z,100.00
2023-07-18T00:50:17.206Z,100.00
2023-07-18T00:52:47.862Z,100.00
2023-07-18T00:55:15.371Z,100.00
2023-07-18T00:57:43.859Z,100.00
2023-07-18T01:00:14.601Z,100.00
2023-07-18T01:02:45.705Z,100.00
2023-07-18T01:05:19.039Z,100.00
2023-07-18T01:07:47.638Z,100.00
2023-07-18T01:10:18.373Z,100.00
2023-07-18T01:12:46.077Z,100.00
2023-07-18T01:15:13.984Z,100.00
2023-07-18T01:17:43.463Z,100.00
2023-07-18T01:20:13.222Z,100.00
2023-07-18T01:22:40.342Z,100.00
2023-07-18T01:25:07.731Z,100.00
2023-07-18T01:27:38.038Z,100.00
2023-07-18T01:30:06.785Z,100.00
2023-07-18T01:32:35.334Z,100.00
2023-07-18T01:35:05.131Z,100.00
2023-07-18T01:37:33.463Z,100.00
2023-07-18T01:40:01.337Z,100.00
2023-07-18T01:42:28.651Z,100.00
2023-07-18T01:44:55.700Z,100.00
2023-07-18T01:47:22.806Z,100.00
2023-07-18T01:49:49.626Z,100.00
2023-07-18T01:52:16.328Z,100.00
2023-07-18T01:54:43.080Z,100.00
2023-07-18T01:57:10.375Z,100.00
2023-07-18T01:59:37.061Z,100.00
2023-07-18T02:02:07.413Z,100.00
2023-07-18T02:04:34.945Z,100.00
2023-07-18T02:07:01.627Z,100.00
2023-07-18T02:09:29.251Z,100.00
2023-07-18T02:11:55.944Z,100.00
2023-07-18T02:14:22.546Z,100.00
2023-07-18T02:16:49.435Z,100.00
2023-07-18T02:19:16.415Z,100.00
2023-07-18T02:21:43.228Z,100.00
2023-07-18T02:24:10.156Z,100.00
2023-07-18T02:26:37.141Z,100.00
2023-07-18T02:29:04.071Z,100.00
2023-07-18T02:31:31.640Z,100.00
2023-07-18T02:33:58.888Z,100.00
2023-07-18T02:36:26.118Z,100.00
2023-07-18T02:38:53.300Z,100.00
2023-07-18T02:41:21.021Z,100.00
2023-07-18T02:43:48.355Z,100.00
2023-07-18T02:46:15.345Z,100.00
2023-07-18T02:48:42.990Z,100.00
2023-07-18T02:51:09.587Z,100.00
2023-07-18T02:53:37.051Z,100.00
2023-07-18T02:56:03.864Z,100.00
2023-07-18T02:58:30.381Z,100.00
2023-07-18T03:00:57.347Z,100.00
2023-07-18T03:03:24.497Z,100.00
2023-07-18T03:05:54.489Z,100.00
2023-07-18T03:08:21.970Z,100.00
2023-07-18T03:10:48.588Z,100.00
2023-07-18T03:13:15.303Z,100.00
2023-07-18T03:15:42.510Z,100.00
2023-07-18T03:18:09.240Z,100.00
2023-07-18T03:20:36.288Z,100.00
2023-07-18T03:23:03.142Z,100.00
2023-07-18T03:25:29.782Z,100.00
2023-07-18T03:27:56.799Z,100.00
2023-07-18T03:30:24.768Z,100.00
2023-07-18T03:32:52.552Z,100.00
2023-07-18T03:35:19.273Z,100.00
2023-07-18T03:37:46.178Z,100.00
2023-07-18T03:40:16.867Z,100.00
2023-07-18T03:42:44.606Z,100.00
2023-07-18T03:45:14.158Z,100.00
2023-07-18T03:47:42.209Z,100.00
2023-07-18T03:50:11.911Z,100.00
2023-07-18T03:52:39.583Z,100.00
2023-07-18T03:55:07.901Z,100.00
2023-07-18T03:57:35.825Z,100.00
2023-07-18T04:00:08.904Z,100.00
2023-07-18T04:02:37.057Z,100.00
2023-07-18T04:05:03.790Z,100.00
2023-07-18T04:07:33.027Z,100.00
2023-07-18T04:09:59.711Z,100.00
2023-07-18T04:12:26.301Z,100.00
2023-07-18T04:14:52.888Z,100.00
2023-07-18T04:17:19.433Z,100.00
2023-07-18T04:19:46.458Z,100.00
2023-07-18T04:22:13.050Z,100.00
2023-07-18T04:24:40.513Z,100.00
2023-07-18T04:27:07.339Z,100.00
2023-07-18T04:29:34.322Z,100.00
2023-07-18T04:32:01.247Z,100.00
2023-07-18T04:34:27.987Z,100.00
2023-07-18T04:36:54.605Z,100.00
2023-07-18T04:39:21.911Z,100.00
2023-07-18T04:41:55.022Z,100.00
2023-07-18T04:44:25.811Z,100.00
2023-07-18T04:46:55.725Z,100.00
2023-07-18T04:49:26.242Z,100.00
2023-07-18T04:51:53.979Z,100.00
2023-07-18T04:54:21.324Z,100.00
2023-07-18T04:56:49.011Z,100.00
2023-07-18T04:59:15.902Z,100.00
2023-07-18T05:01:42.592Z,100.00
2023-07-18T05:04:09.806Z,100.00
2023-07-18T05:06:36.970Z,100.00
2023-07-18T05:09:04.615Z,100.00
2023-07-18T05:11:33.835Z,100.00
2023-07-18T05:14:01.560Z,100.00
2023-07-18T05:16:28.775Z,100.00
2023-07-18T05:18:55.356Z,100.00
2023-07-18T05:21:22.810Z,100.00
2023-07-18T05:23:49.397Z,100.00
2023-07-18T05:26:15.803Z,100.00
2023-07-18T05:28:42.336Z,100.00
2023-07-18T05:31:09.522Z,100.00
2023-07-18T05:33:36.305Z,100.00
2023-07-18T05:36:03.030Z,100.00
2023-07-18T05:38:29.669Z,100.00
2023-07-18T05:40:57.275Z,100.00
2023-07-18T05:43:24.166Z,100.00
2023-07-18T05:45:50.786Z,100.00
2023-07-18T05:48:17.854Z,100.00
2023-07-18T05:50:44.741Z,100.00
2023-07-18T05:53:11.812Z,100.00
2023-07-18T05:55:39.486Z,100.00
2023-07-18T05:58:06.221Z,100.00
2023-07-18T06:00:33.017Z,100.00
2023-07-18T06:02:59.590Z,100.00
2023-07-18T06:05:26.561Z,100.00
2023-07-18T06:07:53.691Z,100.00
2023-07-18T06:10:20.306Z,100.00
2023-07-18T06:12:46.965Z,100.00
2023-07-18T06:15:16.136Z,100.00
2023-07-18T06:17:42.752Z,100.00
2023-07-18T06:20:14.732Z,100.00
2023-07-18T06:22:44.172Z,100.00
2023-07-18T06:25:11.461Z,100.00
2023-07-18T06:27:38.673Z,100.00
2023-07-18T06:30:05.930Z,100.00
2023-07-18T06:32:32.608Z,100.00
2023-07-18T06:35:06.082Z,97.46
2023-07-18T06:37:43.753Z,94.67
2023-07-18T06:40:12.697Z,91.66
2023-07-18T06:42:40.097Z,92.12
2023-07-18T06:45:07.915Z,91.75
2023-07-18T06:47:34.430Z,90.26
2023-07-18T06:50:02.278Z,89.42
2023-07-18T06:52:29.300Z,87.42
2023-07-18T06:54:56.132Z,84.78
2023-07-18T06:57:23.029Z,82.67
2023-07-18T06:59:49.737Z,80.43
2023-07-18T07:02:17.021Z,80.94
2023-07-18T07:04:43.763Z,80.69
2023-07-18T07:07:10.385Z,80.78
2023-07-18T07:09:37.350Z,80.71
2023-07-18T07:12:05.209Z,81.50
2023-07-18T07:14:31.940Z,80.54
2023-07-18T07:16:59.197Z,80.18
2023-07-18T07:19:25.848Z,78.81
2023-07-18T07:21:52.375Z,78.39
2023-07-18T07:24:19.018Z,78.96
2023-07-18T07:26:45.976Z,78.41
2023-07-18T07:29:15.579Z,77.16
2023-07-18T07:31:43.476Z,76.24
2023-07-18T07:34:11.467Z,74.59
2023-07-18T07:36:41.041Z,75.19
2023-07-18T07:39:08.619Z,74.88
2023-07-18T07:41:35.931Z,73.83
2023-07-18T07:44:02.649Z,71.73
2023-07-18T07:46:29.162Z,71.32
2023-07-18T07:48:55.901Z,69.79
2023-07-18T07:51:23.334Z,67.98
2023-07-18T07:53:50.008Z,68.76
2023-07-18T07:56:17.230Z,68.96
2023-07-18T07:58:49.316Z,69.48
2023-07-18T08:01:24.212Z,68.60
2023-07-18T08:03:51.025Z,68.71
2023-07-18T08:06:18.487Z,65.39
2023-07-18T08:08:45.746Z,64.62
2023-07-18T08:11:12.503Z,65.63
2023-07-18T08:13:39.173Z,62.91
2023-07-18T08:16:06.705Z,64.97
2023-07-18T08:18:35.384Z,64.33
2023-07-18T08:21:02.927Z,63.24
2023-07-18T08:23:30.233Z,61.76
2023-07-18T08:25:56.877Z,60.73
2023-07-18T08:28:23.967Z,58.68
2023-07-18T08:30:50.906Z,59.03
2023-07-18T08:33:20.301Z,58.54
2023-07-18T08:35:47.232Z,59.19
2023-07-18T08:38:14.831Z,58.60
2023-07-18T08:40:45.028Z,58.11
2023-07-18T08:43:15.827Z,58.75
2023-07-18T08:45:43.925Z,59.78
2023-07-18T08:48:10.566Z,57.08
2023-07-18T08:50:40.634Z,57.91
2023-07-18T08:53:07.670Z,56.37
2023-07-18T08:55:36.051Z,57.10
2023-07-18T08:58:03.660Z,56.02
2023-07-18T09:00:30.504Z,56.39
2023-07-18T09:02:57.486Z,56.75
2023-07-18T09:05:33.106Z,56.14
2023-07-18T09:08:01.269Z,55.24
2023-07-18T09:10:28.212Z,52.87
2023-07-18T09:12:59.855Z,50.55
2023-07-18T09:15:26.524Z,52.26
2023-07-18T09:17:58.188Z,52.27
2023-07-18T09:20:26.848Z,53.31
2023-07-18T09:23:01.463Z,53.17
2023-07-18T09:25:28.939Z,53.13
2023-07-18T09:27:56.837Z,53.85
2023-07-18T09:30:28.996Z,51.92
2023-07-18T09:32:56.641Z,52.45
2023-07-18T09:35:27.546Z,51.16
2023-07-18T09:37:56.398Z,50.15
2023-07-18T09:40:23.506Z,47.59
2023-07-18T09:42:50.998Z,49.02
2023-07-18T09:45:18.134Z,50.29
2023-07-18T09:47:45.583Z,48.38
2023-07-18T09:50:14.443Z,48.10
2023-07-18T09:52:43.059Z,47.94
2023-07-18T09:55:11.211Z,48.65
2023-07-18T09:57:41.374Z,48.69
2023-07-18T10:00:16.513Z,43.46
2023-07-18T10:02:44.360Z,43.78
2023-07-18T10:05:11.398Z,43.56
2023-07-18T10:07:39.822Z,42.73
2023-07-18T10:10:09.866Z,43.22
2023-07-18T10:12:38.786Z,43.42
2023-07-18T10:15:06.095Z,44.72
2023-07-18T10:17:40.171Z,45.11
2023-07-18T10:20:18.834Z,43.89
2023-07-18T10:22:58.596Z,45.65
2023-07-18T10:25:30.748Z,44.73
2023-07-18T10:27:59.307Z,43.62
2023-07-18T10:30:38.198Z,42.04
2023-07-18T10:33:09.552Z,41.75
2023-07-18T10:35:42.503Z,42.73
2023-07-18T10:38:10.303Z,45.01
2023-07-18T10:40:43.945Z,44.97
2023-07-18T10:43:12.945Z,47.41
2023-07-18T10:45:41.512Z,45.22
2023-07-18T10:48:15.696Z,47.28
2023-07-18T10:50:44.581Z,45.22
2023-07-18T10:53:18.683Z,42.82
2023-07-18T10:55:46.942Z,36.93
2023-07-18T10:58:21.204Z,38.19
2023-07-18T11:00:50.425Z,37.07
2023-07-18T11:03:22.229Z,38.10
2023-07-18T11:05:50.451Z,37.96
2023-07-18T11:08:27.613Z,39.79
2023-07-18T11:11:00.099Z,37.72
2023-07-18T11:13:35.704Z,36.98
2023-07-18T11:16:16.320Z,37.49
2023-07-18T11:18:45.577Z,34.27
2023-07-18T11:21:13.976Z,33.10
2023-07-18T11:23:42.679Z,32.17
2023-07-18T11:26:15.349Z,34.27
2023-07-18T11:28:42.973Z,36.62
2023-07-18T11:33:58.061Z,37.20
2023-07-18T11:36:30.163Z,36.14
2023-07-18T11:38:59.284Z,34.82
2023-07-18T11:41:36.430Z,35.71
2023-07-18T11:44:04.926Z,35.40
2023-07-18T11:46:46.741Z,32.49
2023-07-18T11:49:13.890Z,32.75
2023-07-18T11:51:41.893Z,32.73
2023-07-18T11:54:08.867Z,32.33
2023-07-18T11:56:36.482Z,33.37
2023-07-18T11:59:04.404Z,30.39
2023-07-18T12:01:38.076Z,32.62
2023-07-18T12:04:12.566Z,31.11
2023-07-18T12:06:40.114Z,31.37
2023-07-18T12:09:06.517Z,33.74
2023-07-18T12:11:33.473Z,32.51
2023-07-18T12:14:01.172Z,32.63
2023-07-18T12:16:27.871Z,31.86
2023-07-18T12:18:54.603Z,31.97
2023-07-18T12:21:21.546Z,30.42
2023-07-18T12:23:48.899Z,30.97
2023-07-18T12:26:15.752Z,31.75
2023-07-18T12:28:42.183Z,33.70
2023-07-18T12:31:09.092Z,33.70
2023-07-18T12:33:36.034Z,34.25
2023-07-18T12:36:02.914Z,34.92
2023-07-18T12:38:30.122Z,33.32
2023-07-18T12:40:58.005Z,31.51
2023-07-18T12:43:25.422Z,32.08
2023-07-18T12:45:52.191Z,32.12
2023-07-18T12:48:19.833Z,34.37
2023-07-18T12:50:46.468Z,34.95
2023-07-18T12:53:13.265Z,34.24
2023-07-18T12:55:39.860Z,34.83
2023-07-18T12:58:06.361Z,34.73
2023-07-18T13:00:33.312Z,35.44
2023-07-18T13:03:00.266Z,32.67
2023-07-18T13:05:27.104Z,32.13
2023-07-18T13:07:54.577Z,34.04
2023-07-18T13:10:21.549Z,34.14
2023-07-18T13:12:48.723Z,31.01
2023-07-18T13:15:15.612Z,32.36
2023-07-18T13:17:42.540Z,33.18
2023-07-18T13:20:09.512Z,33.81
2023-07-18T13:22:36.536Z,33.35
2023-07-18T13:25:05.090Z,33.25
2023-07-18T13:27:31.840Z,31.03
2023-07-18T13:29:58.446Z,31.69
2023-07-18T13:32:25.082Z,31.06
2023-07-18T13:34:51.605Z,31.21
2023-07-18T13:37:18.174Z,31.14
2023-07-18T13:39:45.054Z,31.49
2023-07-18T13:42:11.570Z,30.20
2023-07-18T13:44:39.058Z,30.86
2023-07-18T13:47:06.068Z,31.15
2023-07-18T13:52:02.340Z,32.10
2023-07-18T13:54:29.037Z,32.19
2023-07-18T13:56:55.853Z,32.27
2023-07-18T13:59:23.464Z,31.92
2023-07-18T14:01:50.207Z,32.83
2023-07-18T14:04:17.450Z,34.45
2023-07-18T14:06:44.998Z,32.75
2023-07-18T14:09:11.713Z,31.29
2023-07-18T14:11:38.607Z,30.61
2023-07-18T14:14:05.161Z,30.58
2023-07-18T14:16:32.439Z,31.00
2023-07-18T14:18:59.771Z,31.03
2023-07-18T14:21:26.865Z,31.03
2023-07-18T14:23:53.953Z,31.38
2023-07-18T14:26:21.263Z,29.61
2023-07-18T14:28:48.243Z,30.65
2023-07-18T14:31:15.729Z,31.06
2023-07-18T14:33:55.335Z,28.73
2023-07-18T14:36:30.753Z,29.76
2023-07-18T14:38:58.507Z,30.93
2023-07-18T14:41:25.849Z,30.67
2023-07-18T14:43:54.580Z,30.54
2023-07-18T14:46:40.963Z,29.94
2023-07-18T14:49:28.362Z,29.46
2023-07-18T14:51:57.396Z,29.33
2023-07-18T14:54:25.869Z,28.58
2023-07-18T14:56:52.840Z,29.15
2023-07-18T14:59:22.687Z,29.90
2023-07-18T15:01:49.612Z,29.30
2023-07-18T15:04:16.691Z,28.52
2023-07-18T15:06:43.644Z,29.02
2023-07-18T15:09:10.883Z,30.32
2023-07-18T15:11:39.082Z,30.60
2023-07-18T15:14:07.607Z,29.66
2023-07-18T15:16:36.293Z,29.44
2023-07-18T15:19:07.598Z,29.78
2023-07-18T15:21:35.246Z,29.29
2023-07-18T15:24:02.359Z,28.83
2023-07-18T15:26:29.112Z,28.88
2023-07-18T15:28:55.867Z,29.27
2023-07-18T15:31:23.141Z,28.74
2023-07-18T15:33:50.661Z,29.15
2023-07-18T15:36:18.966Z,29.17
2023-07-18T15:38:46.547Z,29.77
2023-07-18T15:41:17.095Z,31.01
2023-07-18T15:43:44.427Z,31.43
2023-07-18T15:46:11.490Z,31.26
2023-07-18T15:48:45.056Z,32.10
2023-07-18T15:51:32.198Z,31.87
2023-07-18T15:54:18.647Z,32.59
2023-07-18T15:57:07.223Z,32.57
2023-07-18T15:59:53.593Z,32.32
2023-07-18T16:02:22.692Z,32.47
2023-07-18T16:04:50.513Z,32.60
2023-07-18T16:07:17.192Z,32.22
2023-07-18T16:09:54.338Z,31.85
2023-07-18T16:12:21.053Z,32.07
2023-07-18T16:14:49.593Z,32.87
2023-07-18T16:17:16.687Z,32.64
2023-07-18T16:19:45.619Z,33.22
2023-07-18T16:22:13.688Z,33.23
2023-07-18T16:24:42.503Z,32.99
2023-07-18T16:27:09.395Z,32.84
2023-07-18T16:29:36.651Z,32.56
2023-07-18T16:32:03.973Z,33.68
2023-07-18T16:34:31.245Z,32.57
2023-07-18T16:36:57.941Z,32.92
2023-07-18T16:39:25.050Z,33.99
2023-07-18T16:41:51.805Z,34.00
2023-07-18T16:44:20.874Z,33.92
2023-07-18T16:46:49.351Z,32.87
2023-07-18T16:49:16.092Z,33.18
2023-07-18T16:51:42.890Z,34.13
2023-07-18T16:54:09.786Z,34.46
2023-07-18T16:56:37.446Z,34.52
2023-07-18T16:59:04.039Z,33.94
2023-07-18T17:01:32.501Z,34.30
2023-07-18T17:04:00.755Z,34.84
2023-07-18T17:06:27.344Z,35.58
2023-07-18T17:08:54.393Z,35.21
2023-07-18T17:11:21.412Z,35.32
2023-07-18T17:13:49.172Z,34.50
2023-07-18T17:16:17.878Z,34.94
2023-07-18T17:18:45.147Z,35.70
2023-07-18T17:21:12.918Z,36.29
2023-07-18T17:23:39.639Z,36.80
2023-07-18T17:26:09.450Z,36.95
2023-07-18T17:28:37.436Z,37.12
2023-07-18T17:31:05.238Z,37.84
2023-07-18T17:33:32.505Z,37.06
2023-07-18T17:35:59.121Z,37.34
2023-07-18T17:38:25.974Z,37.36
2023-07-18T17:40:53.817Z,38.49
2023-07-18T17:43:20.491Z,37.85
2023-07-18T17:45:47.319Z,37.86
2023-07-18T17:48:14.425Z,37.51
2023-07-18T17:50:41.118Z,38.02
2023-07-18T17:53:07.705Z,38.27
2023-07-18T17:55:34.527Z,38.17
2023-07-18T17:58:07.016Z,38.67
2023-07-18T18:00:35.394Z,39.01
2023-07-18T18:03:03.605Z,39.40
2023-07-18T18:05:48.137Z,39.76
2023-07-18T18:08:16.946Z,40.44
2023-07-18T18:10:46.341Z,39.17
2023-07-18T18:13:13.927Z,38.18
2023-07-18T18:15:48.663Z,39.09
2023-07-18T18:18:19.163Z,39.02
2023-07-18T18:20:46.386Z,39.41
2023-07-18T18:23:23.484Z,38.67
2023-07-18T18:25:55.546Z,38.50
2023-07-18T18:28:24.673Z,39.19
2023-07-18T18:30:52.621Z,39.15
2023-07-18T18:33:20.729Z,39.55
2023-07-18T18:35:47.404Z,40.04
2023-07-18T18:38:14.380Z,39.94
2023-07-18T18:40:41.080Z,39.99
2023-07-18T18:43:08.543Z,40.53
2023-07-18T18:45:35.574Z,41.43
2023-07-18T18:48:02.286Z,42.25
2023-07-18T18:50:29.584Z,42.05
2023-07-18T18:52:56.511Z,45.67
2023-07-18T18:55:28.130Z,46.86
2023-07-18T18:57:56.289Z,48.04
2023-07-18T19:00:23.312Z,48.40
2023-07-18T19:02:50.596Z,50.09
2023-07-18T19:05:18.075Z,49.73
2023-07-18T19:07:45.070Z,51.54
2023-07-18T19:10:11.746Z,51.54
2023-07-18T19:12:39.284Z,53.04
2023-07-18T19:15:06.410Z,52.48
2023-07-18T19:17:34.047Z,54.58
2023-07-18T19:20:01.375Z,55.68
2023-07-18T19:22:28.642Z,55.98
2023-07-18T19:24:55.317Z,56.76
2023-07-18T19:27:23.394Z,57.78
2023-07-18T19:29:50.768Z,58.72
2023-07-18T19:32:17.600Z,61.62
2023-07-18T19:34:44.595Z,60.46
2023-07-18T19:37:11.825Z,60.71
2023-07-18T19:39:39.321Z,61.83
2023-07-18T19:42:06.771Z,61.03
2023-07-18T19:44:35.144Z,62.97
2023-07-18T19:47:02.007Z,61.51
2023-07-18T19:49:29.345Z,62.93
2023-07-18T19:51:57.650Z,61.25
2023-07-18T19:54:28.258Z,61.41
2023-07-18T19:56:55.392Z,63.57
2023-07-18T19:59:22.092Z,63.81
2023-07-18T20:01:48.927Z,62.92
2023-07-18T20:04:15.989Z,63.93
2023-07-18T20:06:42.725Z,64.55
2023-07-18T20:09:09.422Z,65.13
2023-07-18T20:11:36.055Z,64.80
2023-07-18T20:14:03.055Z,64.80
2023-07-18T20:16:31.098Z,65.11
2023-07-18T20:19:02.411Z,64.79
2023-07-18T20:21:30.325Z,66.34
2023-07-18T20:23:58.193Z,69.86
2023-07-18T20:26:25.937Z,68.62
2023-07-18T20:28:52.983Z,66.77
2023-07-18T20:31:20.733Z,67.83
2023-07-18T20:33:48.259Z,68.01
2023-07-18T20:36:15.197Z,68.20
2023-07-18T20:38:44.084Z,69.28
2023-07-18T20:41:10.880Z,69.99
2023-07-18T20:43:38.049Z,70.56
2023-07-18T20:46:05.927Z,71.41
2023-07-18T20:48:35.624Z,70.44
2023-07-18T20:51:02.682Z,71.95
2023-07-18T20:53:30.321Z,71.54
2023-07-18T20:55:57.516Z,72.22
2023-07-18T20:58:24.560Z,71.46
2023-07-18T21:00:52.030Z,72.04
2023-07-18T21:03:19.222Z,74.66
2023-07-18T21:05:48.864Z,75.00
2023-07-18T21:08:17.437Z,74.08
2023-07-18T21:10:44.103Z,74.01
2023-07-18T21:13:11.157Z,75.93
2023-07-18T21:15:37.921Z,75.22
2023-07-18T21:18:06.542Z,75.53
2023-07-18T21:20:34.902Z,76.23
2023-07-18T21:23:02.840Z,76.46
2023-07-18T21:25:29.911Z,77.18
2023-07-18T21:27:57.921Z,76.19
2023-07-18T21:30:25.065Z,76.26
2023-07-18T21:32:52.642Z,75.12
2023-07-18T21:35:20.179Z,77.63
2023-07-18T21:37:47.026Z,77.31
2023-07-18T21:40:13.668Z,79.20
2023-07-18T21:42:42.149Z,77.67
2023-07-18T21:45:09.419Z,79.76
2023-07-18T21:47:36.561Z,80.44
2023-07-18T21:50:03.907Z,80.88
2023-07-18T21:52:30.856Z,80.73
2023-07-18T21:54:57.349Z,81.11
2023-07-18T21:57:24.044Z,81.70
2023-07-18T21:59:50.641Z,82.81
2023-07-18T22:02:21.846Z,82.86
2023-07-18T22:04:48.734Z,83.23
2023-07-18T22:07:15.351Z,82.48
2023-07-18T22:09:41.759Z,82.68
2023-07-18T22:12:08.434Z,83.43
2023-07-18T22:14:34.993Z,83.89
2023-07-18T22:17:01.709Z,84.13
2023-07-18T22:19:30.371Z,84.84
2023-07-18T22:21:58.194Z,84.88
2023-07-18T22:24:24.920Z,85.07
2023-07-18T22:26:51.844Z,85.20
2023-07-18T22:29:18.354Z,85.33
2023-07-18T22:31:44.819Z,86.97
2023-07-18T22:34:11.787Z,85.94
2023-07-18T22:36:38.578Z,87.64
2023-07-18T22:39:05.426Z,87.07
2023-07-18T22:41:32.008Z,87.18
2023-07-18T22:43:58.671Z,85.82
2023-07-18T22:46:25.444Z,85.60
2023-07-18T22:48:52.259Z,86.73
2023-07-18T22:51:19.454Z,87.51
2023-07-18T22:53:46.890Z,87.22
2023-07-18T22:56:14.742Z,88.08
2023-07-18T22:58:42.229Z,88.83
2023-07-18T23:01:08.814Z,88.90
2023-07-18T23:03:35.584Z,89.10
2023-07-18T23:06:03.226Z,89.35
2023-07-18T23:08:30.356Z,88.50
2023-07-18T23:10:57.094Z,89.10
2023-07-18T23:13:24.410Z,89.41
2023-07-18T23:15:51.363Z,88.67
2023-07-18T23:18:18.504Z,88.27
2023-07-18T23:20:46.790Z,88.63
2023-07-18T23:23:15.121Z,90.14
2023-07-18T23:25:41.777Z,88.90
2023-07-18T23:28:08.661Z,87.92
2023-07-18T23:30:35.338Z,88.92
2023-07-18T23:33:02.201Z,89.61
2023-07-18T23:35:29.371Z,87.38
2023-07-18T23:37:57.050Z,86.96
2023-07-18T23:40:24.260Z,89.51
2023-07-18T23:42:51.371Z,89.02
2023-07-18T23:45:19.449Z,91.02
2023-07-18T23:47:46.386Z,91.29
2023-07-18T23:50:13.652Z,91.48
2023-07-18T23:52:40.522Z,91.60
2023-07-18T23:55:08.564Z,91.01
2023-07-18T23:57:35.121Z,90.95
